Pagrindinis puslapis
METAR-TAF:

METAR-TAF

Oro uostai :

Bomontas, Teksasas, Jungtinės Amerikos Valstijos

platuma: 30-04-13N, ilguma: 094-12-54W, Aukštis: 10 m

Dabartinis oras

Ataskaita buvo paskelbta 24 minutes, ne 03:15 UTC
Vėjas 7 kt iš Pietryčių
Temperatūra 23°C
Drėgmė 100%
Slėgis 1015 hPa
Matomumas: 16.1 km
Išsisklaidę debesys ne aukštis 2000 ft
Apsiniaukę ne aukštis 3000 ft

METAR: KBMT 170315Z AUTO 13007KT 10SM SCT020 OVC030 23/23 A2996 RMK AO2 LTG DSNT SW T02320225

Laikas: 21:39 (03:39 UTC)


TAF: trūkstamas

Orai ataskaitas ir orų prognozės (METAR, TAF).

turimą stotys yra geltonos ir raudonos taškus žemėlapyje.

Perkelti pele per norėdami pamatyti stoties vardą.

Tada spustelėkite, norėdami matyti oro stebėjimo ir prognozės.

Norėdami pakeisti žemėlapį: spustelėkite ant žalios mygtukų su juodo kryžiaus žemyn,; žalią mygtuką su brūkšneliu, jei norite nutolinti; arba žalių rodyklių gretimoms žemėlapius.


METAR-TAF: